sensor_id;sensor_type;location;lat;lon;timestamp;temperature;humidity
18624;DHT22;9441;51.420;7.036;2022-11-15T00:00:29;10.90;99.90
18624;DHT22;9441;51.420;7.036;2022-11-15T00:01:50;10.90;99.90
18624;DHT22;9441;51.420;7.036;2022-11-15T00:03:13;10.90;99.90
18624;DHT22;9441;51.420;7.036;2022-11-15T00:04:33;11.00;99.90
18624;DHT22;9441;51.420;7.036;2022-11-15T00:05:53;11.10;99.90
18624;DHT22;9441;51.420;7.036;2022-11-15T00:07:13;11.10;99.90
18624;DHT22;9441;51.420;7.036;2022-11-15T00:08:34;11.10;99.90
18624;DHT22;9441;51.420;7.036;2022-11-15T00:09:55;11.00;99.90
18624;DHT22;9441;51.420;7.036;2022-11-15T00:11:15;11.00;99.90
18624;DHT22;9441;51.420;7.036;2022-11-15T00:12:35;11.30;99.90
18624;DHT22;9441;51.420;7.036;2022-11-15T00:13:56;11.20;99.90
18624;DHT22;9441;51.420;7.036;2022-11-15T00:15:16;11.30;99.90
18624;DHT22;9441;51.420;7.036;2022-11-15T00:16:36;11.30;99.90
18624;DHT22;9441;51.420;7.036;2022-11-15T00:17:57;11.40;99.90
18624;DHT22;9441;51.420;7.036;2022-11-15T00:19:16;11.30;99.90
18624;DHT22;9441;51.420;7.036;2022-11-15T00:20:37;11.40;99.90
18624;DHT22;9441;51.420;7.036;2022-11-15T00:21:57;11.30;99.90
18624;DHT22;9441;51.420;7.036;2022-11-15T00:23:17;11.30;99.90
18624;DHT22;9441;51.420;7.036;2022-11-15T00:24:38;11.30;99.90
18624;DHT22;9441;51.420;7.036;2022-11-15T00:26:00;11.50;99.90
18624;DHT22;9441;51.420;7.036;2022-11-15T00:27:20;11.50;99.90
18624;DHT22;9441;51.420;7.036;2022-11-15T00:28:41;11.50;99.90
18624;DHT22;9441;51.420;7.036;2022-11-15T00:30:02;11.50;99.90
18624;DHT22;9441;51.420;7.036;2022-11-15T00:31:23;11.50;99.90
18624;DHT22;9441;51.420;7.036;2022-11-15T00:32:43;11.50;99.90
18624;DHT22;9441;51.420;7.036;2022-11-15T00:34:03;11.60;99.90
18624;DHT22;9441;51.420;7.036;2022-11-15T00:35:24;11.60;99.90
18624;DHT22;9441;51.420;7.036;2022-11-15T00:36:43;11.60;99.90
18624;DHT22;9441;51.420;7.036;2022-11-15T00:38:04;11.80;99.90
18624;DHT22;9441;51.420;7.036;2022-11-15T00:39:23;11.70;99.90
18624;DHT22;9441;51.420;7.036;2022-11-15T00:40:44;11.80;99.90
18624;DHT22;9441;51.420;7.036;2022-11-15T00:42:05;11.70;99.90
18624;DHT22;9441;51.420;7.036;2022-11-15T00:43:25;11.70;99.90
18624;DHT22;9441;51.420;7.036;2022-11-15T00:44:45;11.70;99.90
18624;DHT22;9441;51.420;7.036;2022-11-15T00:46:05;11.80;99.90
18624;DHT22;9441;51.420;7.036;2022-11-15T00:47:27;11.70;99.90
18624;DHT22;9441;51.420;7.036;2022-11-15T00:48:47;11.80;99.90
18624;DHT22;9441;51.420;7.036;2022-11-15T00:50:08;11.70;99.90
18624;DHT22;9441;51.420;7.036;2022-11-15T00:51:27;11.80;99.90
18624;DHT22;9441;51.420;7.036;2022-11-15T00:52:48;11.80;99.90
18624;DHT22;9441;51.420;7.036;2022-11-15T00:54:07;11.80;99.90
18624;DHT22;9441;51.420;7.036;2022-11-15T00:55:28;11.90;99.90
18624;DHT22;9441;51.420;7.036;2022-11-15T00:56:48;12.00;99.90
18624;DHT22;9441;51.420;7.036;2022-11-15T00:58:09;12.00;99.90
18624;DHT22;9441;51.420;7.036;2022-11-15T00:59:30;11.90;99.90
18624;DHT22;9441;51.420;7.036;2022-11-15T01:00:52;11.80;99.90
18624;DHT22;9441;51.420;7.036;2022-11-15T01:02:12;12.00;99.90
18624;DHT22;9441;51.420;7.036;2022-11-15T01:03:32;12.00;99.90
18624;DHT22;9441;51.420;7.036;2022-11-15T01:04:52;12.10;99.90
18624;DHT22;9441;51.420;7.036;2022-11-15T01:06:12;12.10;99.90
18624;DHT22;9441;51.420;7.036;2022-11-15T01:07:33;12.10;99.90
18624;DHT22;9441;51.420;7.036;2022-11-15T01:08:54;12.10;99.90
18624;DHT22;9441;51.420;7.036;2022-11-15T01:10:14;12.00;99.90
18624;DHT22;9441;51.420;7.036;2022-11-15T01:11:34;12.00;99.90
18624;DHT22;9441;51.420;7.036;2022-11-15T01:12:54;12.00;99.90
18624;DHT22;9441;51.420;7.036;2022-11-15T01:14:15;12.00;99.90
18624;DHT22;9441;51.420;7.036;2022-11-15T01:15:39;11.90;99.90
18624;DHT22;9441;51.420;7.036;2022-11-15T01:16:59;12.00;99.90
18624;DHT22;9441;51.420;7.036;2022-11-15T01:18:19;12.10;99.90
18624;DHT22;9441;51.420;7.036;2022-11-15T01:19:40;12.10;99.90
18624;DHT22;9441;51.420;7.036;2022-11-15T01:21:00;12.00;99.90
18624;DHT22;9441;51.420;7.036;2022-11-15T01:22:24;12.10;99.90
18624;DHT22;9441;51.420;7.036;2022-11-15T01:23:44;12.10;99.90
18624;DHT22;9441;51.420;7.036;2022-11-15T01:25:05;12.00;99.90
18624;DHT22;9441;51.420;7.036;2022-11-15T01:26:26;12.10;99.90
18624;DHT22;9441;51.420;7.036;2022-11-15T01:27:47;12.10;99.90
18624;DHT22;9441;51.420;7.036;2022-11-15T01:29:06;12.10;99.90
18624;DHT22;9441;51.420;7.036;2022-11-15T01:30:28;12.30;99.90
18624;DHT22;9441;51.420;7.036;2022-11-15T01:31:47;12.30;99.90
18624;DHT22;9441;51.420;7.036;2022-11-15T01:33:08;12.20;99.90
18624;DHT22;9441;51.420;7.036;2022-11-15T01:34:28;12.20;99.90
18624;DHT22;9441;51.420;7.036;2022-11-15T01:35:49;12.30;99.90
18624;DHT22;9441;51.420;7.036;2022-11-15T01:37:09;12.30;99.90
18624;DHT22;9441;51.420;7.036;2022-11-15T01:38:30;12.30;99.90
18624;DHT22;9441;51.420;7.036;2022-11-15T01:39:51;12.30;99.90
18624;DHT22;9441;51.420;7.036;2022-11-15T01:41:16;12.20;99.90
18624;DHT22;9441;51.420;7.036;2022-11-15T01:42:37;12.30;99.90
18624;DHT22;9441;51.420;7.036;2022-11-15T01:46:00;12.40;99.90
18624;DHT22;9441;51.420;7.036;2022-11-15T01:47:25;12.30;99.90
18624;DHT22;9441;51.420;7.036;2022-11-15T01:48:45;12.20;99.90
18624;DHT22;9441;51.420;7.036;2022-11-15T01:50:08;12.30;99.90
18624;DHT22;9441;51.420;7.036;2022-11-15T01:51:30;12.30;99.90
18624;DHT22;9441;51.420;7.036;2022-11-15T01:52:52;12.20;99.90
18624;DHT22;9441;51.420;7.036;2022-11-15T01:54:14;12.30;99.90
18624;DHT22;9441;51.420;7.036;2022-11-15T01:55:35;12.40;99.90
18624;DHT22;9441;51.420;7.036;2022-11-15T01:56:58;12.30;99.90
18624;DHT22;9441;51.420;7.036;2022-11-15T01:58:19;12.30;99.90
18624;DHT22;9441;51.420;7.036;2022-11-15T01:59:42;12.20;99.90
18624;DHT22;9441;51.420;7.036;2022-11-15T02:01:04;12.20;99.90
18624;DHT22;9441;51.420;7.036;2022-11-15T02:02:24;12.10;99.90
18624;DHT22;9441;51.420;7.036;2022-11-15T02:03:49;12.10;99.90
18624;DHT22;9441;51.420;7.036;2022-11-15T02:05:11;12.40;99.90
18624;DHT22;9441;51.420;7.036;2022-11-15T02:06:31;12.40;99.90
18624;DHT22;9441;51.420;7.036;2022-11-15T02:07:52;12.40;99.90
18624;DHT22;9441;51.420;7.036;2022-11-15T02:09:13;12.40;99.90
18624;DHT22;9441;51.420;7.036;2022-11-15T02:10:33;12.30;99.90
18624;DHT22;9441;51.420;7.036;2022-11-15T02:11:55;12.40;99.90
18624;DHT22;9441;51.420;7.036;2022-11-15T02:13:15;12.40;99.90
18624;DHT22;9441;51.420;7.036;2022-11-15T02:14:38;12.40;99.90
18624;DHT22;9441;51.420;7.036;2022-11-15T02:16:02;12.40;99.90
18624;DHT22;9441;51.420;7.036;2022-11-15T02:17:44;12.40;99.90
18624;DHT22;9441;51.420;7.036;2022-11-15T02:19:17;12.40;99.90
18624;DHT22;9441;51.420;7.036;2022-11-15T02:21:06;12.40;99.90
18624;DHT22;9441;51.420;7.036;2022-11-15T02:22:37;12.30;99.90
18624;DHT22;9441;51.420;7.036;2022-11-15T02:24:33;12.40;99.90
18624;DHT22;9441;51.420;7.036;2022-11-15T02:26:08;12.50;99.90
18624;DHT22;9441;51.420;7.036;2022-11-15T02:27:45;12.30;99.90
18624;DHT22;9441;51.420;7.036;2022-11-15T02:29:10;12.30;99.90
18624;DHT22;9441;51.420;7.036;2022-11-15T02:30:41;12.40;99.90
18624;DHT22;9441;51.420;7.036;2022-11-15T02:32:06;12.30;99.90
18624;DHT22;9441;51.420;7.036;2022-11-15T02:33:35;12.30;99.90
18624;DHT22;9441;51.420;7.036;2022-11-15T02:35:02;12.30;99.90
18624;DHT22;9441;51.420;7.036;2022-11-15T02:36:33;12.30;99.90
18624;DHT22;9441;51.420;7.036;2022-11-15T02:37:57;12.20;99.90
18624;DHT22;9441;51.420;7.036;2022-11-15T02:39:23;12.10;99.90
18624;DHT22;9441;51.420;7.036;2022-11-15T02:40:53;12.20;99.90
18624;DHT22;9441;51.420;7.036;2022-11-15T02:42:17;12.30;99.90
18624;DHT22;9441;51.420;7.036;2022-11-15T02:44:02;12.20;99.90
18624;DHT22;9441;51.420;7.036;2022-11-15T02:45:27;12.20;99.90
18624;DHT22;9441;51.420;7.036;2022-11-15T02:46:51;12.20;99.90
18624;DHT22;9441;51.420;7.036;2022-11-15T02:48:39;12.20;99.90
18624;DHT22;9441;51.420;7.036;2022-11-15T02:50:06;12.20;99.90
18624;DHT22;9441;51.420;7.036;2022-11-15T02:51:26;12.40;99.90
18624;DHT22;9441;51.420;7.036;2022-11-15T02:52:47;12.50;99.90
18624;DHT22;9441;51.420;7.036;2022-11-15T02:54:12;12.50;99.90
18624;DHT22;9441;51.420;7.036;2022-11-15T02:55:35;12.50;99.90
18624;DHT22;9441;51.420;7.036;2022-11-15T02:56:59;12.40;99.90
18624;DHT22;9441;51.420;7.036;2022-11-15T02:58:47;12.40;99.90
18624;DHT22;9441;51.420;7.036;2022-11-15T03:00:10;12.30;99.90
18624;DHT22;9441;51.420;7.036;2022-11-15T03:01:38;12.40;99.90
18624;DHT22;9441;51.420;7.036;2022-11-15T03:03:17;12.40;99.90
18624;DHT22;9441;51.420;7.036;2022-11-15T03:04:44;12.50;99.90
18624;DHT22;9441;51.420;7.036;2022-11-15T03:06:12;12.60;99.90
18624;DHT22;9441;51.420;7.036;2022-11-15T03:07:39;12.70;99.90
18624;DHT22;9441;51.420;7.036;2022-11-15T03:09:07;12.60;99.90
18624;DHT22;9441;51.420;7.036;2022-11-15T03:10:35;12.50;99.90
18624;DHT22;9441;51.420;7.036;2022-11-15T03:11:58;12.50;99.90
18624;DHT22;9441;51.420;7.036;2022-11-15T03:13:24;12.60;99.90
18624;DHT22;9441;51.420;7.036;2022-11-15T03:14:50;12.60;99.90
18624;DHT22;9441;51.420;7.036;2022-11-15T03:16:18;12.50;99.90
18624;DHT22;9441;51.420;7.036;2022-11-15T03:17:45;12.50;99.90
18624;DHT22;9441;51.420;7.036;2022-11-15T03:19:13;12.60;99.90
18624;DHT22;9441;51.420;7.036;2022-11-15T03:20:35;12.70;99.90
18624;DHT22;9441;51.420;7.036;2022-11-15T03:21:58;12.80;99.90
18624;DHT22;9441;51.420;7.036;2022-11-15T03:23:20;12.70;99.90
18624;DHT22;9441;51.420;7.036;2022-11-15T03:24:43;12.60;99.90
18624;DHT22;9441;51.420;7.036;2022-11-15T03:26:06;12.70;99.90
18624;DHT22;9441;51.420;7.036;2022-11-15T03:27:30;12.60;99.90
18624;DHT22;9441;51.420;7.036;2022-11-15T03:28:54;12.50;99.90
18624;DHT22;9441;51.420;7.036;2022-11-15T03:30:16;12.60;99.90
18624;DHT22;9441;51.420;7.036;2022-11-15T03:31:41;12.50;99.90
18624;DHT22;9441;51.420;7.036;2022-11-15T03:33:06;12.50;99.90
18624;DHT22;9441;51.420;7.036;2022-11-15T03:34:36;12.70;99.90
18624;DHT22;9441;51.420;7.036;2022-11-15T03:35:56;12.70;99.90
18624;DHT22;9441;51.420;7.036;2022-11-15T03:37:22;12.70;99.90
18624;DHT22;9441;51.420;7.036;2022-11-15T03:38:45;12.70;99.90
18624;DHT22;9441;51.420;7.036;2022-11-15T03:40:06;12.70;99.90
18624;DHT22;9441;51.420;7.036;2022-11-15T03:41:30;12.70;99.90
18624;DHT22;9441;51.420;7.036;2022-11-15T03:43:00;12.80;99.90
18624;DHT22;9441;51.420;7.036;2022-11-15T03:44:34;12.70;99.90
18624;DHT22;9441;51.420;7.036;2022-11-15T03:45:58;12.70;99.90
18624;DHT22;9441;51.420;7.036;2022-11-15T03:47:23;12.80;99.90
18624;DHT22;9441;51.420;7.036;2022-11-15T03:48:50;12.80;99.90
18624;DHT22;9441;51.420;7.036;2022-11-15T03:50:13;12.80;99.90
18624;DHT22;9441;51.420;7.036;2022-11-15T03:51:35;12.70;99.90
18624;DHT22;9441;51.420;7.036;2022-11-15T03:52:55;12.80;99.90
18624;DHT22;9441;51.420;7.036;2022-11-15T03:54:15;12.80;99.90
18624;DHT22;9441;51.420;7.036;2022-11-15T03:55:35;12.80;99.90
18624;DHT22;9441;51.420;7.036;2022-11-15T03:56:55;12.80;99.90
18624;DHT22;9441;51.420;7.036;2022-11-15T03:58:16;12.70;99.90
18624;DHT22;9441;51.420;7.036;2022-11-15T03:59:37;12.70;99.90
18624;DHT22;9441;51.420;7.036;2022-11-15T04:00:57;12.60;99.90
18624;DHT22;9441;51.420;7.036;2022-11-15T04:02:18;12.60;99.90
18624;DHT22;9441;51.420;7.036;2022-11-15T04:03:39;12.50;99.90
18624;DHT22;9441;51.420;7.036;2022-11-15T04:04:59;12.50;99.90
18624;DHT22;9441;51.420;7.036;2022-11-15T04:06:21;12.70;99.90
18624;DHT22;9441;51.420;7.036;2022-11-15T04:07:41;12.60;99.90
18624;DHT22;9441;51.420;7.036;2022-11-15T04:09:01;12.70;99.90
18624;DHT22;9441;51.420;7.036;2022-11-15T04:10:21;12.70;99.90
18624;DHT22;9441;51.420;7.036;2022-11-15T04:11:41;12.70;99.90
18624;DHT22;9441;51.420;7.036;2022-11-15T04:13:02;12.70;99.90
18624;DHT22;9441;51.420;7.036;2022-11-15T04:14:23;12.70;99.90
18624;DHT22;9441;51.420;7.036;2022-11-15T04:15:42;12.70;99.90
18624;DHT22;9441;51.420;7.036;2022-11-15T04:17:03;12.70;99.90
18624;DHT22;9441;51.420;7.036;2022-11-15T04:18:24;12.60;99.90
18624;DHT22;9441;51.420;7.036;2022-11-15T04:19:43;12.70;99.90
18624;DHT22;9441;51.420;7.036;2022-11-15T04:21:31;12.70;99.90
18624;DHT22;9441;51.420;7.036;2022-11-15T04:23:12;12.70;99.90
18624;DHT22;9441;51.420;7.036;2022-11-15T04:24:51;12.60;99.90
18624;DHT22;9441;51.420;7.036;2022-11-15T04:26:14;12.70;99.90
18624;DHT22;9441;51.420;7.036;2022-11-15T04:27:36;12.70;99.90
18624;DHT22;9441;51.420;7.036;2022-11-15T04:28:55;12.70;99.90
18624;DHT22;9441;51.420;7.036;2022-11-15T04:30:34;12.70;99.90
18624;DHT22;9441;51.420;7.036;2022-11-15T04:31:54;12.70;99.90
18624;DHT22;9441;51.420;7.036;2022-11-15T04:33:14;12.60;99.90
18624;DHT22;9441;51.420;7.036;2022-11-15T04:34:35;12.70;99.90
18624;DHT22;9441;51.420;7.036;2022-11-15T04:35:55;12.70;99.90
18624;DHT22;9441;51.420;7.036;2022-11-15T04:37:30;12.60;99.90
18624;DHT22;9441;51.420;7.036;2022-11-15T04:38:51;12.70;99.90
18624;DHT22;9441;51.420;7.036;2022-11-15T04:40:11;12.80;99.90
18624;DHT22;9441;51.420;7.036;2022-11-15T04:41:31;12.80;99.90
18624;DHT22;9441;51.420;7.036;2022-11-15T04:42:52;12.70;99.90
18624;DHT22;9441;51.420;7.036;2022-11-15T04:44:13;12.70;99.90
18624;DHT22;9441;51.420;7.036;2022-11-15T04:45:33;12.70;99.90
18624;DHT22;9441;51.420;7.036;2022-11-15T04:46:54;12.80;99.90
18624;DHT22;9441;51.420;7.036;2022-11-15T04:48:14;12.70;99.90
18624;DHT22;9441;51.420;7.036;2022-11-15T04:49:34;12.70;99.90
18624;DHT22;9441;51.420;7.036;2022-11-15T04:50:55;12.80;99.90
18624;DHT22;9441;51.420;7.036;2022-11-15T04:52:15;12.80;99.90
18624;DHT22;9441;51.420;7.036;2022-11-15T04:53:36;12.80;99.90
18624;DHT22;9441;51.420;7.036;2022-11-15T04:54:57;12.70;99.90
18624;DHT22;9441;51.420;7.036;2022-11-15T04:56:18;12.70;99.90
18624;DHT22;9441;51.420;7.036;2022-11-15T04:57:37;12.80;99.90
18624;DHT22;9441;51.420;7.036;2022-11-15T04:58:58;12.70;99.90
18624;DHT22;9441;51.420;7.036;2022-11-15T05:00:18;12.60;99.90
18624;DHT22;9441;51.420;7.036;2022-11-15T05:01:38;12.70;99.90
18624;DHT22;9441;51.420;7.036;2022-11-15T05:02:58;12.80;99.90
18624;DHT22;9441;51.420;7.036;2022-11-15T05:04:36;12.80;99.90
18624;DHT22;9441;51.420;7.036;2022-11-15T05:05:58;12.80;99.90
18624;DHT22;9441;51.420;7.036;2022-11-15T05:07:17;12.80;99.90
18624;DHT22;9441;51.420;7.036;2022-11-15T05:08:39;12.70;99.90
18624;DHT22;9441;51.420;7.036;2022-11-15T05:09:59;12.80;99.90
18624;DHT22;9441;51.420;7.036;2022-11-15T05:11:19;12.70;99.90
18624;DHT22;9441;51.420;7.036;2022-11-15T05:12:39;12.80;99.90
18624;DHT22;9441;51.420;7.036;2022-11-15T05:14:00;12.80;99.90
18624;DHT22;9441;51.420;7.036;2022-11-15T05:15:20;12.80;99.90
18624;DHT22;9441;51.420;7.036;2022-11-15T05:16:41;12.80;99.90
18624;DHT22;9441;51.420;7.036;2022-11-15T05:18:00;12.80;99.90
18624;DHT22;9441;51.420;7.036;2022-11-15T05:19:20;12.80;99.90
18624;DHT22;9441;51.420;7.036;2022-11-15T05:20:41;12.90;99.90
18624;DHT22;9441;51.420;7.036;2022-11-15T05:22:00;12.80;99.90
18624;DHT22;9441;51.420;7.036;2022-11-15T05:23:21;12.80;99.90
18624;DHT22;9441;51.420;7.036;2022-11-15T05:24:42;12.80;99.90
18624;DHT22;9441;51.420;7.036;2022-11-15T05:26:04;12.70;99.90
18624;DHT22;9441;51.420;7.036;2022-11-15T05:27:24;12.80;99.90
18624;DHT22;9441;51.420;7.036;2022-11-15T05:28:45;12.90;99.90
18624;DHT22;9441;51.420;7.036;2022-11-15T05:30:06;12.90;99.90
18624;DHT22;9441;51.420;7.036;2022-11-15T05:31:27;12.90;99.90
18624;DHT22;9441;51.420;7.036;2022-11-15T05:32:48;12.90;99.90
18624;DHT22;9441;51.420;7.036;2022-11-15T05:34:09;12.90;99.90
18624;DHT22;9441;51.420;7.036;2022-11-15T05:35:34;12.90;99.90
18624;DHT22;9441;51.420;7.036;2022-11-15T05:36:55;12.90;99.90
18624;DHT22;9441;51.420;7.036;2022-11-15T05:38:16;12.90;99.90
18624;DHT22;9441;51.420;7.036;2022-11-15T05:39:35;13.00;99.90
18624;DHT22;9441;51.420;7.036;2022-11-15T05:40:57;13.00;99.90
18624;DHT22;9441;51.420;7.036;2022-11-15T05:42:17;13.00;99.90
18624;DHT22;9441;51.420;7.036;2022-11-15T05:43:38;13.00;99.90
18624;DHT22;9441;51.420;7.036;2022-11-15T05:45:00;13.00;99.90
18624;DHT22;9441;51.420;7.036;2022-11-15T05:46:22;13.10;99.90
18624;DHT22;9441;51.420;7.036;2022-11-15T05:47:42;13.10;99.90
18624;DHT22;9441;51.420;7.036;2022-11-15T05:49:05;13.10;99.90
18624;DHT22;9441;51.420;7.036;2022-11-15T05:50:27;13.10;99.90
18624;DHT22;9441;51.420;7.036;2022-11-15T05:51:48;13.20;99.90
18624;DHT22;9441;51.420;7.036;2022-11-15T05:53:10;13.20;99.90
18624;DHT22;9441;51.420;7.036;2022-11-15T05:54:32;13.10;99.90
18624;DHT22;9441;51.420;7.036;2022-11-15T05:55:54;13.10;99.90
18624;DHT22;9441;51.420;7.036;2022-11-15T05:57:16;13.20;99.90
18624;DHT22;9441;51.420;7.036;2022-11-15T05:58:37;13.20;99.90
18624;DHT22;9441;51.420;7.036;2022-11-15T05:59:57;13.20;99.90
18624;DHT22;9441;51.420;7.036;2022-11-15T06:01:18;13.30;99.90
18624;DHT22;9441;51.420;7.036;2022-11-15T06:02:39;13.20;99.90
18624;DHT22;9441;51.420;7.036;2022-11-15T06:03:59;13.30;99.90
18624;DHT22;9441;51.420;7.036;2022-11-15T06:05:19;13.40;99.90
18624;DHT22;9441;51.420;7.036;2022-11-15T06:06:40;13.30;99.90
18624;DHT22;9441;51.420;7.036;2022-11-15T06:08:00;13.30;99.90
18624;DHT22;9441;51.420;7.036;2022-11-15T06:09:21;13.40;99.90
18624;DHT22;9441;51.420;7.036;2022-11-15T06:10:41;13.50;99.90
18624;DHT22;9441;51.420;7.036;2022-11-15T06:12:01;13.40;99.90
18624;DHT22;9441;51.420;7.036;2022-11-15T06:13:23;13.30;99.90
18624;DHT22;9441;51.420;7.036;2022-11-15T06:14:43;13.40;99.90
18624;DHT22;9441;51.420;7.036;2022-11-15T06:16:05;13.40;99.90
18624;DHT22;9441;51.420;7.036;2022-11-15T06:17:25;13.40;99.90
18624;DHT22;9441;51.420;7.036;2022-11-15T06:18:45;13.40;99.90
18624;DHT22;9441;51.420;7.036;2022-11-15T06:20:07;13.50;99.90
18624;DHT22;9441;51.420;7.036;2022-11-15T06:21:27;13.50;99.90
18624;DHT22;9441;51.420;7.036;2022-11-15T06:22:48;13.50;99.90
18624;DHT22;9441;51.420;7.036;2022-11-15T06:24:12;13.40;99.90
18624;DHT22;9441;51.420;7.036;2022-11-15T06:25:32;13.50;99.90
18624;DHT22;9441;51.420;7.036;2022-11-15T06:26:53;13.50;99.90
18624;DHT22;9441;51.420;7.036;2022-11-15T06:28:13;13.60;99.90
18624;DHT22;9441;51.420;7.036;2022-11-15T06:29:34;13.60;99.90
18624;DHT22;9441;51.420;7.036;2022-11-15T06:30:55;13.60;99.90
18624;DHT22;9441;51.420;7.036;2022-11-15T06:32:16;13.70;99.90
18624;DHT22;9441;51.420;7.036;2022-11-15T06:33:36;13.70;99.90
18624;DHT22;9441;51.420;7.036;2022-11-15T06:34:58;13.60;99.90
18624;DHT22;9441;51.420;7.036;2022-11-15T06:36:18;13.60;99.90
18624;DHT22;9441;51.420;7.036;2022-11-15T06:37:38;13.70;99.90
18624;DHT22;9441;51.420;7.036;2022-11-15T06:38:58;13.50;99.90
18624;DHT22;9441;51.420;7.036;2022-11-15T06:40:19;13.60;99.90
18624;DHT22;9441;51.420;7.036;2022-11-15T06:41:39;13.60;99.90
18624;DHT22;9441;51.420;7.036;2022-11-15T06:43:00;13.60;99.90
18624;DHT22;9441;51.420;7.036;2022-11-15T06:44:20;13.60;99.90
18624;DHT22;9441;51.420;7.036;2022-11-15T06:45:42;13.60;99.90
18624;DHT22;9441;51.420;7.036;2022-11-15T06:47:03;13.50;99.90
18624;DHT22;9441;51.420;7.036;2022-11-15T06:48:23;13.50;99.90
18624;DHT22;9441;51.420;7.036;2022-11-15T06:49:43;13.60;99.90
18624;DHT22;9441;51.420;7.036;2022-11-15T06:51:05;13.50;99.90
18624;DHT22;9441;51.420;7.036;2022-11-15T06:52:26;13.50;99.90
18624;DHT22;9441;51.420;7.036;2022-11-15T06:53:51;13.40;99.90
18624;DHT22;9441;51.420;7.036;2022-11-15T06:55:12;13.50;99.90
18624;DHT22;9441;51.420;7.036;2022-11-15T06:56:33;13.50;99.90
18624;DHT22;9441;51.420;7.036;2022-11-15T06:57:54;13.50;99.90
18624;DHT22;9441;51.420;7.036;2022-11-15T06:59:14;13.40;99.90
18624;DHT22;9441;51.420;7.036;2022-11-15T07:00:34;13.30;99.90
18624;DHT22;9441;51.420;7.036;2022-11-15T07:01:56;13.30;99.90
18624;DHT22;9441;51.420;7.036;2022-11-15T07:03:17;13.30;99.90
18624;DHT22;9441;51.420;7.036;2022-11-15T07:04:37;13.30;99.90
18624;DHT22;9441;51.420;7.036;2022-11-15T07:05:58;13.20;99.90
18624;DHT22;9441;51.420;7.036;2022-11-15T07:07:18;13.30;99.90
18624;DHT22;9441;51.420;7.036;2022-11-15T07:08:38;13.20;99.90
18624;DHT22;9441;51.420;7.036;2022-11-15T07:10:00;13.20;99.90
18624;DHT22;9441;51.420;7.036;2022-11-15T07:11:21;13.20;99.90
18624;DHT22;9441;51.420;7.036;2022-11-15T07:12:41;13.20;99.90
18624;DHT22;9441;51.420;7.036;2022-11-15T07:14:02;13.20;99.90
18624;DHT22;9441;51.420;7.036;2022-11-15T07:15:26;13.10;99.90
18624;DHT22;9441;51.420;7.036;2022-11-15T07:16:46;13.00;99.90
18624;DHT22;9441;51.420;7.036;2022-11-15T07:18:08;13.00;99.90
18624;DHT22;9441;51.420;7.036;2022-11-15T07:19:28;13.00;99.90
18624;DHT22;9441;51.420;7.036;2022-11-15T07:20:49;13.10;99.90
18624;DHT22;9441;51.420;7.036;2022-11-15T07:22:10;12.90;99.90
18624;DHT22;9441;51.420;7.036;2022-11-15T07:23:31;12.90;99.90
18624;DHT22;9441;51.420;7.036;2022-11-15T07:24:51;12.90;99.90
18624;DHT22;9441;51.420;7.036;2022-11-15T07:26:11;12.90;99.90
18624;DHT22;9441;51.420;7.036;2022-11-15T07:27:32;12.90;99.90
18624;DHT22;9441;51.420;7.036;2022-11-15T07:28:53;12.90;99.90
18624;DHT22;9441;51.420;7.036;2022-11-15T07:30:13;12.80;99.90
18624;DHT22;9441;51.420;7.036;2022-11-15T07:31:34;12.80;99.90
18624;DHT22;9441;51.420;7.036;2022-11-15T07:32:55;12.80;99.90
18624;DHT22;9441;51.420;7.036;2022-11-15T07:34:17;12.70;99.90
18624;DHT22;9441;51.420;7.036;2022-11-15T07:35:37;12.80;99.90
18624;DHT22;9441;51.420;7.036;2022-11-15T07:36:58;12.70;99.90
18624;DHT22;9441;51.420;7.036;2022-11-15T07:38:18;12.70;99.90
18624;DHT22;9441;51.420;7.036;2022-11-15T07:39:39;12.60;99.90
18624;DHT22;9441;51.420;7.036;2022-11-15T07:41:01;12.60;99.90
18624;DHT22;9441;51.420;7.036;2022-11-15T07:42:22;12.60;99.90
18624;DHT22;9441;51.420;7.036;2022-11-15T07:44:01;12.60;99.90
18624;DHT22;9441;51.420;7.036;2022-11-15T07:45:22;12.50;99.90
18624;DHT22;9441;51.420;7.036;2022-11-15T07:46:45;12.50;99.90
18624;DHT22;9441;51.420;7.036;2022-11-15T07:48:06;12.50;99.90
18624;DHT22;9441;51.420;7.036;2022-11-15T07:49:28;12.40;99.90
18624;DHT22;9441;51.420;7.036;2022-11-15T07:50:48;12.50;99.90
18624;DHT22;9441;51.420;7.036;2022-11-15T07:52:08;12.40;99.90
18624;DHT22;9441;51.420;7.036;2022-11-15T07:53:29;12.40;99.90
18624;DHT22;9441;51.420;7.036;2022-11-15T07:54:50;12.50;99.90
18624;DHT22;9441;51.420;7.036;2022-11-15T07:56:10;12.50;99.90
18624;DHT22;9441;51.420;7.036;2022-11-15T07:57:30;12.50;99.90
18624;DHT22;9441;51.420;7.036;2022-11-15T07:58:51;12.50;99.90
18624;DHT22;9441;51.420;7.036;2022-11-15T08:00:12;12.40;99.90
18624;DHT22;9441;51.420;7.036;2022-11-15T08:01:33;12.40;99.90
18624;DHT22;9441;51.420;7.036;2022-11-15T08:03:01;12.50;99.90
18624;DHT22;9441;51.420;7.036;2022-11-15T08:04:22;12.50;99.90
18624;DHT22;9441;51.420;7.036;2022-11-15T08:05:50;12.50;99.90
18624;DHT22;9441;51.420;7.036;2022-11-15T08:07:10;12.60;99.90
18624;DHT22;9441;51.420;7.036;2022-11-15T08:08:31;12.60;99.90
18624;DHT22;9441;51.420;7.036;2022-11-15T08:09:51;12.60;99.90
18624;DHT22;9441;51.420;7.036;2022-11-15T08:11:13;12.60;99.90
18624;DHT22;9441;51.420;7.036;2022-11-15T08:12:34;12.60;99.90
18624;DHT22;9441;51.420;7.036;2022-11-15T08:13:53;12.60;99.90
18624;DHT22;9441;51.420;7.036;2022-11-15T08:15:14;12.60;99.90
18624;DHT22;9441;51.420;7.036;2022-11-15T08:16:34;12.60;99.90
18624;DHT22;9441;51.420;7.036;2022-11-15T08:17:55;12.70;99.90
18624;DHT22;9441;51.420;7.036;2022-11-15T08:19:15;12.60;99.90
18624;DHT22;9441;51.420;7.036;2022-11-15T08:20:35;12.60;99.90
18624;DHT22;9441;51.420;7.036;2022-11-15T08:21:57;12.70;99.90
18624;DHT22;9441;51.420;7.036;2022-11-15T08:23:18;12.70;99.90
18624;DHT22;9441;51.420;7.036;2022-11-15T08:24:39;12.80;99.90
18624;DHT22;9441;51.420;7.036;2022-11-15T08:26:00;12.80;99.90
18624;DHT22;9441;51.420;7.036;2022-11-15T08:27:21;12.90;99.90
18624;DHT22;9441;51.420;7.036;2022-11-15T08:28:42;12.90;99.90
18624;DHT22;9441;51.420;7.036;2022-11-15T08:30:03;12.80;99.90
18624;DHT22;9441;51.420;7.036;2022-11-15T08:31:24;12.70;99.90
18624;DHT22;9441;51.420;7.036;2022-11-15T08:32:44;12.70;99.90
18624;DHT22;9441;51.420;7.036;2022-11-15T08:34:05;12.70;99.90
18624;DHT22;9441;51.420;7.036;2022-11-15T08:35:26;12.60;99.90
18624;DHT22;9441;51.420;7.036;2022-11-15T08:36:47;12.60;99.90
18624;DHT22;9441;51.420;7.036;2022-11-15T08:38:09;12.70;99.90
18624;DHT22;9441;51.420;7.036;2022-11-15T08:39:30;12.60;99.90
18624;DHT22;9441;51.420;7.036;2022-11-15T08:40:51;12.70;99.90
18624;DHT22;9441;51.420;7.036;2022-11-15T08:42:12;12.60;99.90
18624;DHT22;9441;51.420;7.036;2022-11-15T08:43:34;12.60;99.90
18624;DHT22;9441;51.420;7.036;2022-11-15T08:44:54;12.60;99.90
18624;DHT22;9441;51.420;7.036;2022-11-15T08:46:15;12.50;99.90
18624;DHT22;9441;51.420;7.036;2022-11-15T08:47:37;12.50;99.90
18624;DHT22;9441;51.420;7.036;2022-11-15T08:48:57;12.50;99.90
18624;DHT22;9441;51.420;7.036;2022-11-15T08:50:18;12.50;99.90